Time;durP1;ratioP1;P1;durP2;ratioP2;P2;SDS_P1;SDS_P2;PMS_P1;PMS_P2;Temp;Humidity;BMP_temperature;BMP_pressure;BME280_temperature;BME280_humidity;BME280_pressure;Samples;Min_cycle;Max_cycle;Signal;HPM_P1;HPM_P2
2023/12/05 00:01:33;;;;;;;16.67;12.30;;;;;;;;;;5027090;28;20050;-89
2023/12/05 00:04:00;;;;;;;17.58;11.23;;;;;;;;;;5016459;28;20097;-90
2023/12/05 00:06:27;;;;;;;18.90;12.55;;;;;;;;;;5015078;28;20080;-90
2023/12/05 00:08:53;;;;;;;18.42;12.65;;;;;;;;;;5027794;28;20077;-90
2023/12/05 00:11:19;;;;;;;17.80;12.30;;;;;;;;;;5002861;28;20140;-90
2023/12/05 00:13:45;;;;;;;18.05;12.70;;;;;;;;;;5026179;28;20046;-90
2023/12/05 00:16:11;;;;;;;17.50;12.25;;;;;;;;;;4997262;28;20046;-88
2023/12/05 00:18:46;;;;;;;19.40;12.73;;;;;;;;;;5013653;28;20410;-89
2023/12/05 00:21:12;;;;;;;15.70;11.70;;;;;;;;;;5008199;28;20050;-89
2023/12/05 00:23:38;;;;;;;18.40;13.15;;;;;;;;;;5009714;28;20092;-90
2023/12/05 00:26:08;;;;;;;17.00;11.77;;;;;;;;;;5007648;28;20046;-90
2023/12/05 00:28:35;;;;;;;18.42;13.07;;;;;;;;;;5020268;28;20046;-89
2023/12/05 00:31:01;;;;;;;17.55;12.45;;;;;;;;;;5007832;28;20137;-89
2023/12/05 00:33:27;;;;;;;20.63;13.27;;;;;;;;;;5023551;28;20685;-91
2023/12/05 00:35:54;;;;;;;18.70;12.82;;;;;;;;;;5018326;28;20049;-89
2023/12/05 00:38:20;;;;;;;20.17;12.80;;;;;;;;;;5018744;28;20826;-89
2023/12/05 00:40:52;;;;;;;17.17;12.15;;;;;;;;;;5023414;28;20559;-87
2023/12/05 00:43:18;;;;;;;19.02;12.85;;;;;;;;;;4993324;28;20048;-90
2023/12/05 00:45:44;;;;;;;20.90;13.77;;;;;;;;;;5027067;28;20130;-90
2023/12/05 00:48:10;;;;;;;18.52;12.73;;;;;;;;;;5012647;28;20128;-87
2023/12/05 00:50:36;;;;;;;20.17;13.73;;;;;;;;;;5012061;28;20504;-89
2023/12/05 00:53:04;;;;;;;18.00;12.98;;;;;;;;;;5009393;28;20489;-89
2023/12/05 00:55:30;;;;;;;18.50;13.15;;;;;;;;;;4980583;28;21045;-90
2023/12/05 00:57:56;;;;;;;19.65;13.40;;;;;;;;;;5011551;28;20121;-90
2023/12/05 01:00:23;;;;;;;19.30;12.90;;;;;;;;;;4995910;28;20053;-90
2023/12/05 01:02:51;;;;;;;20.08;13.40;;;;;;;;;;5011654;28;20460;-90
2023/12/05 01:05:20;;;;;;;19.40;12.90;;;;;;;;;;4991277;28;20042;-89
2023/12/05 01:07:46;;;;;;;18.10;13.32;;;;;;;;;;4990003;28;20061;-88
2023/12/05 01:10:12;;;;;;;20.08;14.35;;;;;;;;;;4991451;28;20042;-88
2023/12/05 01:12:39;;;;;;;19.27;13.55;;;;;;;;;;5016355;28;20051;-91
2023/12/05 01:15:08;;;;;;;21.58;13.98;;;;;;;;;;5023270;28;20061;-90
2023/12/05 01:17:34;;;;;;;20.17;13.60;;;;;;;;;;5025551;28;20050;-89
2023/12/05 01:20:00;;;;;;;20.17;13.38;;;;;;;;;;4999750;28;20038;-89
2023/12/05 01:22:26;;;;;;;20.55;13.98;;;;;;;;;;5005290;28;20096;-89
2023/12/05 01:24:56;;;;;;;22.52;14.13;;;;;;;;;;5026810;28;20058;-90
2023/12/05 01:27:25;;;;;;;21.10;14.45;;;;;;;;;;5006502;28;20065;-90
2023/12/05 01:29:52;;;;;;;18.25;13.40;;;;;;;;;;5032002;28;20057;-91
2023/12/05 01:32:18;;;;;;;18.90;13.27;;;;;;;;;;5007948;28;20062;-90
2023/12/05 01:34:44;;;;;;;20.90;14.57;;;;;;;;;;5036355;28;20038;-89
2023/12/05 01:37:13;;;;;;;20.48;13.77;;;;;;;;;;4989763;28;20504;-89
2023/12/05 01:39:39;;;;;;;19.38;14.43;;;;;;;;;;5035268;28;20184;-90
2023/12/05 01:42:04;;;;;;;19.70;14.18;;;;;;;;;;5021825;28;20128;-89
2023/12/05 01:44:30;;;;;;;21.30;14.85;;;;;;;;;;5024617;28;20582;-89
2023/12/05 01:46:57;;;;;;;22.77;14.63;;;;;;;;;;5006371;28;20058;-90
2023/12/05 01:49:22;;;;;;;24.23;15.80;;;;;;;;;;5027145;28;20038;-89
2023/12/05 01:51:49;;;;;;;19.35;13.88;;;;;;;;;;5007716;28;20058;-88
2023/12/05 01:54:15;;;;;;;20.38;14.48;;;;;;;;;;5015596;28;20052;-88
2023/12/05 01:56:41;;;;;;;24.73;15.60;;;;;;;;;;5021014;28;20132;-87
2023/12/05 01:59:07;;;;;;;20.73;14.45;;;;;;;;;;5018389;28;20156;-88
2023/12/05 02:01:33;;;;;;;21.17;15.63;;;;;;;;;;4998781;28;20039;-88
2023/12/05 02:04:00;;;;;;;21.33;15.15;;;;;;;;;;5020982;28;20057;-88
2023/12/05 02:06:26;;;;;;;20.77;15.52;;;;;;;;;;5020950;28;20120;-88
2023/12/05 02:08:53;;;;;;;21.25;15.45;;;;;;;;;;5020624;28;20061;-88
2023/12/05 02:11:19;;;;;;;24.83;16.80;;;;;;;;;;4989211;28;20058;-88
2023/12/05 02:13:47;;;;;;;19.92;15.07;;;;;;;;;;5018852;28;20519;-89
2023/12/05 02:16:29;;;;;;;23.25;16.27;;;;;;;;;;5020916;28;20110;-88
2023/12/05 02:19:22;;;;;;;24.48;16.23;;;;;;;;;;5029260;28;20501;-88
2023/12/05 02:21:49;;;;;;;24.17;16.48;;;;;;;;;;5000251;28;20192;-87
2023/12/05 02:24:20;;;;;;;21.42;15.98;;;;;;;;;;5025201;28;20166;-89
2023/12/05 02:26:46;;;;;;;23.17;16.80;;;;;;;;;;5035145;28;20180;-88
2023/12/05 02:29:12;;;;;;;24.42;16.45;;;;;;;;;;5023989;28;20137;-89
2023/12/05 02:31:38;;;;;;;23.20;16.35;;;;;;;;;;5009419;28;20058;-89
2023/12/05 02:34:04;;;;;;;23.73;16.80;;;;;;;;;;5004332;28;20050;-87
2023/12/05 02:36:49;;;;;;;26.10;17.98;;;;;;;;;;5029166;28;20046;-87
2023/12/05 02:39:21;;;;;;;25.27;17.17;;;;;;;;;;5014928;28;20046;-87
2023/12/05 02:41:52;;;;;;;23.63;16.67;;;;;;;;;;5015331;28;20407;-89
2023/12/05 02:44:18;;;;;;;26.45;17.90;;;;;;;;;;5008207;28;20512;-88
2023/12/05 02:46:48;;;;;;;27.08;16.92;;;;;;;;;;5023367;28;20042;-88
2023/12/05 02:49:14;;;;;;;24.08;15.82;;;;;;;;;;5020087;28;20050;-88
2023/12/05 02:51:41;;;;;;;23.10;15.25;;;;;;;;;;5021027;28;20038;-88
2023/12/05 02:54:07;;;;;;;25.42;17.38;;;;;;;;;;5020432;28;20440;-89
2023/12/05 02:56:35;;;;;;;25.77;17.17;;;;;;;;;;5020335;28;20069;-87
2023/12/05 02:59:01;;;;;;;24.25;16.38;;;;;;;;;;5022264;28;20046;-88
2023/12/05 03:01:27;;;;;;;24.77;16.85;;;;;;;;;;4991691;28;20046;-89
2023/12/05 03:03:53;;;;;;;26.90;17.50;;;;;;;;;;5003725;28;20093;-88
2023/12/05 03:06:19;;;;;;;24.02;16.60;;;;;;;;;;5024540;28;20117;-89
2023/12/05 03:08:45;;;;;;;26.02;17.30;;;;;;;;;;5021574;28;20129;-88
2023/12/05 03:11:11;;;;;;;25.55;17.25;;;;;;;;;;5006856;28;20157;-87
2023/12/05 03:13:41;;;;;;;26.42;18.27;;;;;;;;;;5033494;28;20061;-88
2023/12/05 03:16:10;;;;;;;26.83;17.55;;;;;;;;;;5025784;28;20054;-88
2023/12/05 03:18:37;;;;;;;25.58;17.60;;;;;;;;;;5040027;28;20164;-88
2023/12/05 03:21:04;;;;;;;24.85;16.15;;;;;;;;;;5018247;28;20104;-88
2023/12/05 03:23:30;;;;;;;24.35;16.38;;;;;;;;;;5039773;28;20062;-89
2023/12/05 03:25:56;;;;;;;25.02;16.90;;;;;;;;;;5026552;28;20127;-88
2023/12/05 03:28:22;;;;;;;25.88;17.33;;;;;;;;;;5041870;28;20559;-88
2023/12/05 03:30:48;;;;;;;24.95;16.70;;;;;;;;;;5026395;28;20057;-88
2023/12/05 03:33:14;;;;;;;26.77;17.55;;;;;;;;;;5008499;28;20124;-88
2023/12/05 03:35:40;;;;;;;24.95;16.55;;;;;;;;;;5006683;28;20047;-87
2023/12/05 03:38:06;;;;;;;25.38;16.75;;;;;;;;;;5030724;28;20100;-88
2023/12/05 03:40:32;;;;;;;25.00;17.67;;;;;;;;;;5009509;28;20054;-88
2023/12/05 03:42:58;;;;;;;25.75;17.45;;;;;;;;;;5015080;28;20814;-88
2023/12/05 03:45:25;;;;;;;26.15;18.40;;;;;;;;;;5016156;28;20050;-87
2023/12/05 03:47:51;;;;;;;25.02;17.33;;;;;;;;;;5005930;28;20042;-87
2023/12/05 03:50:17;;;;;;;25.80;18.33;;;;;;;;;;4990131;28;20054;-87
2023/12/05 03:52:43;;;;;;;27.70;18.17;;;;;;;;;;5008911;28;20542;-87
2023/12/05 03:55:09;;;;;;;26.77;19.30;;;;;;;;;;5005293;28;20042;-88
2023/12/05 03:57:35;;;;;;;28.40;18.33;;;;;;;;;;5005595;28;20058;-87
2023/12/05 04:00:01;;;;;;;27.25;17.98;;;;;;;;;;5010141;28;20048;-87
2023/12/05 04:02:27;;;;;;;27.75;18.52;;;;;;;;;;5008704;28;20049;-87
2023/12/05 04:04:53;;;;;;;26.88;18.15;;;;;;;;;;5006426;28;20093;-87
2023/12/05 04:07:19;;;;;;;28.33;18.33;;;;;;;;;;5011153;28;20041;-87
2023/12/05 04:09:46;;;;;;;29.52;19.40;;;;;;;;;;5023124;28;20839;-88
2023/12/05 04:12:12;;;;;;;29.02;19.00;;;;;;;;;;5022642;28;20135;-87
2023/12/05 04:14:39;;;;;;;26.60;18.38;;;;;;;;;;5022923;28;20058;-88
2023/12/05 04:17:05;;;;;;;29.67;20.10;;;;;;;;;;5021874;28;20107;-88
2023/12/05 04:19:31;;;;;;;29.00;20.17;;;;;;;;;;5025558;28;20038;-88
2023/12/05 04:21:57;;;;;;;29.50;19.45;;;;;;;;;;5015604;28;20413;-87
2023/12/05 04:24:23;;;;;;;30.85;20.50;;;;;;;;;;5035126;28;20129;-88
2023/12/05 04:26:49;;;;;;;30.40;19.45;;;;;;;;;;5014632;28;20057;-87
2023/12/05 04:29:15;;;;;;;30.00;20.10;;;;;;;;;;5022892;28;20086;-88
2023/12/05 04:31:41;;;;;;;29.90;19.45;;;;;;;;;;5022747;28;20112;-86
2023/12/05 04:34:07;;;;;;;30.15;20.10;;;;;;;;;;5031286;28;20512;-86
2023/12/05 04:36:33;;;;;;;28.23;18.98;;;;;;;;;;5024508;28;20057;-88
2023/12/05 04:38:59;;;;;;;29.02;19.35;;;;;;;;;;5024485;28;20502;-87
2023/12/05 04:41:25;;;;;;;32.22;20.98;;;;;;;;;;5022734;28;20057;-87
2023/12/05 04:43:52;;;;;;;30.58;20.23;;;;;;;;;;5022313;28;20180;-88
2023/12/05 04:46:21;;;;;;;29.67;20.17;;;;;;;;;;5024234;28;20038;-88
2023/12/05 04:48:47;;;;;;;33.30;20.70;;;;;;;;;;5017572;28;20058;-87
2023/12/05 04:51:18;;;;;;;32.20;21.80;;;;;;;;;;4995732;28;20050;-88
2023/12/05 04:53:44;;;;;;;30.48;19.55;;;;;;;;;;5029434;28;20038;-88
2023/12/05 04:56:10;;;;;;;31.05;20.25;;;;;;;;;;5013648;28;20455;-88
2023/12/05 04:58:36;;;;;;;35.65;21.65;;;;;;;;;;5006365;28;20148;-87
2023/12/05 05:01:02;;;;;;;34.53;20.63;;;;;;;;;;5000379;28;20053;-87
2023/12/05 05:03:28;;;;;;;31.05;20.80;;;;;;;;;;5004770;28;20053;-88
2023/12/05 05:05:54;;;;;;;33.80;22.00;;;;;;;;;;5012304;28;20050;-87
2023/12/05 05:08:20;;;;;;;35.42;21.33;;;;;;;;;;4988202;28;20131;-87
2023/12/05 05:10:46;;;;;;;33.30;21.58;;;;;;;;;;5030193;28;20050;-87
2023/12/05 05:13:12;;;;;;;32.63;21.13;;;;;;;;;;5018779;28;20132;-87
2023/12/05 05:15:38;;;;;;;33.22;20.92;;;;;;;;;;5023342;28;20050;-86
2023/12/05 05:18:04;;;;;;;31.10;20.23;;;;;;;;;;5034694;28;20038;-87
2023/12/05 05:20:30;;;;;;;35.78;22.25;;;;;;;;;;5020942;28;20050;-87
2023/12/05 05:22:56;;;;;;;30.88;20.05;;;;;;;;;;5039382;28;20530;-87
2023/12/05 05:25:22;;;;;;;35.22;22.35;;;;;;;;;;5023517;28;20130;-87
2023/12/05 05:27:48;;;;;;;33.40;20.48;;;;;;;;;;5007142;28;20913;-87
2023/12/05 05:30:14;;;;;;;37.80;23.25;;;;;;;;;;5003812;28;20060;-87
2023/12/05 05:32:40;;;;;;;35.28;21.63;;;;;;;;;;5026634;28;20416;-88
2023/12/05 05:35:06;;;;;;;34.95;22.23;;;;;;;;;;5023816;28;20053;-88
2023/12/05 05:37:32;;;;;;;36.05;21.60;;;;;;;;;;5020484;28;20050;-89
2023/12/05 05:39:58;;;;;;;33.60;20.40;;;;;;;;;;5029559;28;20053;-87
2023/12/05 05:42:24;;;;;;;35.40;21.83;;;;;;;;;;5014651;28;20527;-88
2023/12/05 05:44:50;;;;;;;35.17;23.13;;;;;;;;;;5025663;28;20038;-87
2023/12/05 05:47:16;;;;;;;32.90;20.10;;;;;;;;;;5006802;28;20045;-87
2023/12/05 05:49:42;;;;;;;33.42;22.20;;;;;;;;;;5011482;28;20053;-87
2023/12/05 05:52:08;;;;;;;30.33;19.65;;;;;;;;;;5020920;28;20042;-86
2023/12/05 05:54:34;;;;;;;33.55;21.35;;;;;;;;;;5020644;28;20173;-87
2023/12/05 05:57:00;;;;;;;33.55;21.83;;;;;;;;;;5020394;28;20473;-87
2023/12/05 05:59:26;;;;;;;33.60;20.40;;;;;;;;;;5020191;28;20046;-88
2023/12/05 06:01:52;;;;;;;33.72;20.60;;;;;;;;;;4998660;28;20416;-87
2023/12/05 06:04:18;;;;;;;37.17;21.65;;;;;;;;;;5017670;28;20056;-86
2023/12/05 06:06:44;;;;;;;35.38;20.73;;;;;;;;;;5016904;28;20046;-87
2023/12/05 06:09:10;;;;;;;36.05;21.95;;;;;;;;;;4987175;28;20484;-87
2023/12/05 06:11:36;;;;;;;33.75;20.65;;;;;;;;;;5030405;28;20578;-88
2023/12/05 06:14:03;;;;;;;35.90;22.17;;;;;;;;;;5019590;28;20078;-87
2023/12/05 06:16:30;;;;;;;33.15;20.85;;;;;;;;;;5020756;28;20423;-86
2023/12/05 06:18:56;;;;;;;35.53;20.40;;;;;;;;;;5000754;28;20056;-88
2023/12/05 06:21:22;;;;;;;34.65;21.75;;;;;;;;;;4999380;28;20531;-87
2023/12/05 06:23:48;;;;;;;35.05;21.88;;;;;;;;;;4986707;28;20050;-88
2023/12/05 06:26:14;;;;;;;38.50;21.35;;;;;;;;;;5019369;28;20054;-87
2023/12/05 06:28:40;;;;;;;34.05;20.60;;;;;;;;;;5008906;28;20057;-87
2023/12/05 06:31:06;;;;;;;32.05;20.13;;;;;;;;;;5022662;28;20519;-86
2023/12/05 06:33:32;;;;;;;32.55;20.05;;;;;;;;;;5018946;28;20180;-86
2023/12/05 06:35:58;;;;;;;33.63;21.23;;;;;;;;;;5015562;28;20046;-87
2023/12/05 06:38:24;;;;;;;32.70;21.42;;;;;;;;;;5019502;28;20047;-85
2023/12/05 06:40:50;;;;;;;37.20;21.83;;;;;;;;;;5008353;28;20396;-84
2023/12/05 06:43:16;;;;;;;35.17;21.70;;;;;;;;;;5041205;28;20076;-84
2023/12/05 06:45:42;;;;;;;34.63;21.38;;;;;;;;;;5010421;28;20046;-86
2023/12/05 06:48:08;;;;;;;34.42;20.17;;;;;;;;;;5006051;28;20050;-83
2023/12/05 06:50:34;;;;;;;32.53;19.73;;;;;;;;;;5000384;28;20415;-84
2023/12/05 06:53:01;;;;;;;33.45;20.20;;;;;;;;;;5043151;28;20518;-85
2023/12/05 06:55:27;;;;;;;33.05;19.80;;;;;;;;;;4998640;28;20617;-86
2023/12/05 06:57:53;;;;;;;32.65;19.50;;;;;;;;;;5006856;28;20057;-84
2023/12/05 07:00:20;;;;;;;34.00;21.10;;;;;;;;;;5024232;28;20498;-84
2023/12/05 07:02:46;;;;;;;33.20;19.92;;;;;;;;;;5002172;28;20496;-84
2023/12/05 07:05:12;;;;;;;33.30;20.95;;;;;;;;;;5010348;28;20052;-84
2023/12/05 07:07:38;;;;;;;34.45;21.63;;;;;;;;;;5011408;28;20046;-87
2023/12/05 07:10:05;;;;;;;33.65;20.52;;;;;;;;;;5009563;28;20073;-84
2023/12/05 07:12:32;;;;;;;32.17;19.92;;;;;;;;;;5009951;28;20050;-85
2023/12/05 07:14:58;;;;;;;33.05;20.30;;;;;;;;;;5008643;28;20045;-83
2023/12/05 07:17:24;;;;;;;31.63;19.35;;;;;;;;;;5007666;28;20042;-84
2023/12/05 07:19:50;;;;;;;34.53;20.30;;;;;;;;;;5022672;28;20060;-86
2023/12/05 07:22:16;;;;;;;32.20;20.15;;;;;;;;;;5037049;28;20492;-86
2023/12/05 07:24:43;;;;;;;32.00;20.50;;;;;;;;;;5024432;28;20052;-86
2023/12/05 07:27:09;;;;;;;35.90;21.02;;;;;;;;;;4989897;28;20058;-85
2023/12/05 07:29:35;;;;;;;32.25;20.38;;;;;;;;;;4992901;28;20061;-89
2023/12/05 07:32:01;;;;;;;35.08;21.65;;;;;;;;;;4990988;28;20128;-87
2023/12/05 07:34:27;;;;;;;35.70;21.67;;;;;;;;;;5023072;28;20721;-85
2023/12/05 07:36:53;;;;;;;35.17;20.42;;;;;;;;;;5022661;28;20057;-85
2023/12/05 07:39:19;;;;;;;34.20;21.08;;;;;;;;;;5007831;28;20161;-86
2023/12/05 07:41:45;;;;;;;34.55;20.92;;;;;;;;;;5037575;28;20157;-86
2023/12/05 07:44:11;;;;;;;33.95;20.10;;;;;;;;;;5022895;28;20140;-85
2023/12/05 07:46:41;;;;;;;35.83;20.45;;;;;;;;;;5005986;28;20042;-86
2023/12/05 07:49:07;;;;;;;32.38;18.60;;;;;;;;;;4989912;28;20060;-87
2023/12/05 07:51:33;;;;;;;31.25;20.60;;;;;;;;;;4989442;28;20460;-86
2023/12/05 07:53:59;;;;;;;37.47;21.60;;;;;;;;;;4988984;28;20112;-85
2023/12/05 07:56:25;;;;;;;34.35;21.65;;;;;;;;;;4992631;28;20053;-85
2023/12/05 07:58:51;;;;;;;35.22;21.33;;;;;;;;;;5041887;28;20069;-85
2023/12/05 08:01:17;;;;;;;32.10;20.17;;;;;;;;;;5022655;28;20050;-86
2023/12/05 08:03:43;;;;;;;36.55;21.48;;;;;;;;;;5022563;28;20144;-86
2023/12/05 08:06:09;;;;;;;46.45;22.85;;;;;;;;;;5006607;28;20651;-88
2023/12/05 08:08:35;;;;;;;33.47;20.30;;;;;;;;;;5005672;28;20053;-87
2023/12/05 08:11:01;;;;;;;35.83;21.02;;;;;;;;;;5006110;28;20046;-85
2023/12/05 08:13:27;;;;;;;32.58;19.42;;;;;;;;;;5005925;28;20054;-86
2023/12/05 08:15:54;;;;;;;35.63;20.60;;;;;;;;;;5007338;28;20874;-85
2023/12/05 08:18:20;;;;;;;38.28;22.48;;;;;;;;;;5007709;28;20515;-83
2023/12/05 08:20:46;;;;;;;40.05;21.15;;;;;;;;;;5038971;28;20080;-85
2023/12/05 08:23:12;;;;;;;34.75;19.70;;;;;;;;;;5008480;28;20103;-83
2023/12/05 08:25:38;;;;;;;72.50;24.27;;;;;;;;;;5024642;28;20042;-82
2023/12/05 08:28:04;;;;;;;37.55;20.13;;;;;;;;;;5008709;28;20097;-84
2023/12/05 08:30:30;;;;;;;33.47;20.35;;;;;;;;;;5024148;28;20049;-83
2023/12/05 08:33:00;;;;;;;32.50;19.73;;;;;;;;;;5007658;28;20092;-83
2023/12/05 08:35:26;;;;;;;35.50;20.52;;;;;;;;;;5007975;28;20524;-83
2023/12/05 08:37:52;;;;;;;31.15;19.38;;;;;;;;;;5007234;28;20054;-84
2023/12/05 08:40:18;;;;;;;33.15;20.80;;;;;;;;;;5024318;28;20357;-83
2023/12/05 08:42:44;;;;;;;34.40;19.83;;;;;;;;;;5041967;28;20053;-84
2023/12/05 08:45:10;;;;;;;32.78;19.88;;;;;;;;;;5040619;28;20100;-83
2023/12/05 08:47:40;;;;;;;33.33;19.27;;;;;;;;;;5021871;28;20042;-86
2023/12/05 08:50:07;;;;;;;35.00;21.52;;;;;;;;;;4977198;28;20072;-84
2023/12/05 08:52:33;;;;;;;34.28;20.95;;;;;;;;;;5008266;28;20049;-84
2023/12/05 08:55:00;;;;;;;35.97;21.10;;;;;;;;;;5009848;28;20096;-84
2023/12/05 08:57:26;;;;;;;43.80;20.77;;;;;;;;;;5001260;28;20046;-85
2023/12/05 08:59:52;;;;;;;36.75;21.35;;;;;;;;;;5022256;28;20050;-84
2023/12/05 09:02:22;;;;;;;32.75;20.58;;;;;;;;;;5004607;28;20081;-85
2023/12/05 09:04:48;;;;;;;32.97;19.25;;;;;;;;;;5023334;28;20416;-84
2023/12/05 09:07:14;;;;;;;34.08;20.75;;;;;;;;;;5001423;28;20040;-84
2023/12/05 09:09:41;;;;;;;31.50;19.20;;;;;;;;;;5005087;28;20046;-83
2023/12/05 09:12:07;;;;;;;34.40;21.30;;;;;;;;;;5023330;28;20451;-86
2023/12/05 09:14:34;;;;;;;36.45;18.88;;;;;;;;;;5008017;28;20038;-85
2023/12/05 09:17:01;;;;;;;30.40;19.60;;;;;;;;;;5008458;28;20096;-85
2023/12/05 09:19:27;;;;;;;30.95;19.95;;;;;;;;;;4998423;28;20062;-85
2023/12/05 09:21:53;;;;;;;33.42;19.67;;;;;;;;;;5029825;28;20053;-85
2023/12/05 09:24:25;;;;;;;34.17;19.83;;;;;;;;;;5136064;27;1217285;-85
2023/12/05 09:26:51;;;;;;;31.10;19.50;;;;;;;;;;5132048;27;20090;-84
2023/12/05 09:29:17;;;;;;;30.13;19.90;;;;;;;;;;5149798;27;20042;-83
2023/12/05 09:31:43;;;;;;;73.15;23.25;;;;;;;;;;5148635;27;20583;-85
2023/12/05 09:34:09;;;;;;;30.48;19.42;;;;;;;;;;5132188;27;20039;-84
2023/12/05 09:36:35;;;;;;;33.80;19.85;;;;;;;;;;5149550;27;20564;-82
2023/12/05 09:39:01;;;;;;;32.13;19.60;;;;;;;;;;5150041;27;20104;-84
2023/12/05 09:41:27;;;;;;;31.50;19.65;;;;;;;;;;5148572;27;20125;-84
2023/12/05 09:43:54;;;;;;;29.95;18.83;;;;;;;;;;5148626;27;20046;-83
2023/12/05 09:46:25;;;;;;;31.63;19.08;;;;;;;;;;5149258;27;20068;-84
2023/12/05 09:48:54;;;;;;;30.02;18.52;;;;;;;;;;5128576;27;20046;-83
2023/12/05 09:51:22;;;;;;;29.00;19.38;;;;;;;;;;5128406;27;20092;-82
2023/12/05 09:53:48;;;;;;;32.33;20.05;;;;;;;;;;5138965;27;20046;-83
2023/12/05 09:56:14;;;;;;;29.50;18.23;;;;;;;;;;5149078;27;20042;-83
2023/12/05 09:58:42;;;;;;;29.48;18.10;;;;;;;;;;5149239;27;20038;-82
2023/12/05 10:01:08;;;;;;;33.13;21.48;;;;;;;;;;5131309;27;20089;-83
2023/12/05 10:03:35;;;;;;;31.13;20.48;;;;;;;;;;5130761;27;20050;-83
2023/12/05 10:06:03;;;;;;;30.40;18.98;;;;;;;;;;5145965;27;20082;-82
2023/12/05 10:08:30;;;;;;;28.77;18.60;;;;;;;;;;5124758;27;20061;-84
2023/12/05 10:10:59;;;;;;;28.70;18.10;;;;;;;;;;5109420;27;20075;-83
2023/12/05 10:13:25;;;;;;;29.00;18.45;;;;;;;;;;5125567;27;20153;-83
2023/12/05 10:15:51;;;;;;;32.30;19.27;;;;;;;;;;5120365;27;20050;-81
2023/12/05 10:18:18;;;;;;;28.90;17.85;;;;;;;;;;5142959;27;20039;-82
2023/12/05 10:20:44;;;;;;;30.17;19.20;;;;;;;;;;5131103;27;20108;-83
2023/12/05 10:23:10;;;;;;;27.58;18.40;;;;;;;;;;5143461;27;20055;-82
2023/12/05 10:25:36;;;;;;;29.70;18.58;;;;;;;;;;5141805;27;20070;-84
2023/12/05 10:28:04;;;;;;;30.00;19.42;;;;;;;;;;5130462;27;20069;-84
2023/12/05 10:30:34;;;;;;;30.25;18.20;;;;;;;;;;5144120;27;20051;-84
2023/12/05 10:33:10;;;;;;;30.70;18.92;;;;;;;;;;5121315;27;20121;-84
2023/12/05 10:35:36;;;;;;;32.63;21.75;;;;;;;;;;5099831;27;20096;-85
2023/12/05 10:38:06;;;;;;;29.77;20.05;;;;;;;;;;5119196;27;20039;-83
2023/12/05 10:40:49;;;;;;;35.42;23.95;;;;;;;;;;5113991;27;20092;-86
2023/12/05 10:43:15;;;;;;;37.00;24.77;;;;;;;;;;5112992;27;20082;-85
2023/12/05 10:45:41;;;;;;;32.08;21.80;;;;;;;;;;5131012;27;20073;-86
2023/12/05 10:48:07;;;;;;;37.17;30.73;;;;;;;;;;5130367;27;20500;-85
2023/12/05 10:50:33;;;;;;;33.33;22.08;;;;;;;;;;5130325;27;20126;-85
2023/12/05 10:53:00;;;;;;;33.15;22.17;;;;;;;;;;5130067;27;20508;-85
2023/12/05 10:55:26;;;;;;;34.45;23.27;;;;;;;;;;5129814;27;20489;-84
2023/12/05 10:57:52;;;;;;;35.35;23.48;;;;;;;;;;5130468;27;20039;-84
2023/12/05 11:00:19;;;;;;;31.90;21.35;;;;;;;;;;5130203;27;20049;-85
2023/12/05 11:02:47;;;;;;;34.10;23.50;;;;;;;;;;5130190;27;20086;-85
2023/12/05 11:05:14;;;;;;;60.92;53.45;;;;;;;;;;5124361;27;20040;-84
2023/12/05 11:07:46;;;;;;;37.05;27.65;;;;;;;;;;5113122;27;20039;-84
2023/12/05 11:10:12;;;;;;;37.93;26.83;;;;;;;;;;5129966;27;20082;-85
2023/12/05 11:12:40;;;;;;;33.92;23.00;;;;;;;;;;5129230;27;20074;-85
2023/12/05 11:15:07;;;;;;;31.77;21.80;;;;;;;;;;5124953;27;20046;-86
2023/12/05 11:17:45;;;;;;;28.20;19.08;;;;;;;;;;5109135;27;20052;-84
2023/12/05 11:20:31;;;;;;;33.70;20.35;;;;;;;;;;5112174;27;20051;-84
2023/12/05 11:23:12;;;;;;;32.72;21.15;;;;;;;;;;5098115;27;20120;-83
2023/12/05 11:25:41;;;;;;;35.15;22.25;;;;;;;;;;5122203;27;20058;-85
2023/12/05 11:28:21;;;;;;;39.67;25.88;;;;;;;;;;5111350;27;20043;-84
2023/12/05 11:30:53;;;;;;;35.08;21.88;;;;;;;;;;5109303;27;20070;-84
2023/12/05 11:33:38;;;;;;;35.75;23.52;;;;;;;;;;5095394;27;20503;-86
2023/12/05 11:36:24;;;;;;;36.70;21.77;;;;;;;;;;5128036;27;20046;-84
2023/12/05 11:38:50;;;;;;;34.40;21.52;;;;;;;;;;5126302;27;20116;-84
2023/12/05 11:41:18;;;;;;;33.80;22.08;;;;;;;;;;5128445;27;20054;-84
2023/12/05 11:44:04;;;;;;;34.38;22.35;;;;;;;;;;5108550;28;20074;-85
2023/12/05 11:46:35;;;;;;;32.55;21.42;;;;;;;;;;5090078;28;20044;-84
2023/12/05 11:49:02;;;;;;;34.22;20.88;;;;;;;;;;5112956;27;20081;-85
2023/12/05 11:51:30;;;;;;;33.08;22.70;;;;;;;;;;5111573;27;20086;-84
2023/12/05 11:53:57;;;;;;;34.55;22.52;;;;;;;;;;5112312;27;20050;-83
2023/12/05 11:56:23;;;;;;;37.53;21.60;;;;;;;;;;5128749;27;20103;-84
2023/12/05 11:58:49;;;;;;;35.25;21.92;;;;;;;;;;5128649;27;20450;-85
2023/12/05 12:01:15;;;;;;;39.20;22.48;;;;;;;;;;5111408;27;20131;-84
2023/12/05 12:03:48;;;;;;;36.95;23.70;;;;;;;;;;5126706;27;20043;-85
2023/12/05 12:06:18;;;;;;;35.90;21.98;;;;;;;;;;5111394;27;20130;-84
2023/12/05 12:08:45;;;;;;;38.92;25.40;;;;;;;;;;5128436;27;20041;-84
2023/12/05 12:11:11;;;;;;;36.55;23.25;;;;;;;;;;5103328;28;20089;-87
2023/12/05 12:13:37;;;;;;;39.95;23.23;;;;;;;;;;5107827;28;20408;-84
2023/12/05 12:16:03;;;;;;;38.88;23.27;;;;;;;;;;5108298;28;20127;-85
2023/12/05 12:18:30;;;;;;;38.50;23.52;;;;;;;;;;5122381;27;20047;-88
2023/12/05 12:20:57;;;;;;;36.53;22.70;;;;;;;;;;5132100;27;20049;-88
2023/12/05 12:23:23;;;;;;;38.35;22.75;;;;;;;;;;5128734;27;20096;-86
2023/12/05 12:26:00;;;;;;;35.10;21.38;;;;;;;;;;5111237;27;20126;-85
2023/12/05 12:28:30;;;;;;;38.85;23.73;;;;;;;;;;5095083;28;20409;-84
2023/12/05 12:30:56;;;;;;;43.80;27.40;;;;;;;;;;5090482;28;20109;-84
2023/12/05 12:33:28;;;;;;;47.47;32.90;;;;;;;;;;5109404;28;20154;-87
2023/12/05 12:35:54;;;;;;;41.17;27.55;;;;;;;;;;5110577;28;20126;-85
2023/12/05 12:38:24;;;;;;;40.47;25.02;;;;;;;;;;5113712;28;20135;-88
2023/12/05 12:40:50;;;;;;;38.25;23.63;;;;;;;;;;5111397;27;20036;-85
2023/12/05 12:43:16;;;;;;;38.78;24.38;;;;;;;;;;5094377;28;20097;-86
2023/12/05 12:45:42;;;;;;;41.80;24.20;;;;;;;;;;5125129;27;20070;-87
2023/12/05 12:48:08;;;;;;;40.20;25.45;;;;;;;;;;5114801;27;20054;-87
2023/12/05 12:50:34;;;;;;;41.67;23.38;;;;;;;;;;5131289;27;20551;-87
2023/12/05 12:53:01;;;;;;;38.17;22.77;;;;;;;;;;5129894;27;20231;-87
2023/12/05 12:55:27;;;;;;;43.40;25.08;;;;;;;;;;5129098;27;20047;-84
2023/12/05 12:57:53;;;;;;;42.42;24.20;;;;;;;;;;5128195;27;20059;-84
2023/12/05 13:00:20;;;;;;;43.40;27.63;;;;;;;;;;5114618;27;20461;-84
2023/12/05 13:02:46;;;;;;;40.65;27.35;;;;;;;;;;5089963;28;20193;-84
2023/12/05 13:05:12;;;;;;;44.30;24.65;;;;;;;;;;5106898;28;20042;-84
2023/12/05 13:07:38;;;;;;;41.42;25.33;;;;;;;;;;5119927;27;20043;-84
2023/12/05 13:10:05;;;;;;;42.03;26.40;;;;;;;;;;5127911;27;20132;-85
2023/12/05 13:12:31;;;;;;;42.78;29.38;;;;;;;;;;5127655;27;20131;-84
2023/12/05 13:14:57;;;;;;;46.10;28.90;;;;;;;;;;5127859;27;20524;-87
2023/12/05 13:17:24;;;;;;;42.25;24.10;;;;;;;;;;5111113;27;20051;-83
2023/12/05 13:20:03;;;;;;;41.50;24.95;;;;;;;;;;5128041;27;20575;-84
2023/12/05 13:22:30;;;;;;;43.97;23.88;;;;;;;;;;5127679;27;20122;-85
2023/12/05 13:24:56;;;;;;;45.97;25.80;;;;;;;;;;5131121;27;20082;-85
2023/12/05 13:27:22;;;;;;;42.88;23.55;;;;;;;;;;5114099;27;20074;-84
2023/12/05 13:29:51;;;;;;;42.72;26.60;;;;;;;;;;5130620;27;20130;-85
2023/12/05 13:32:17;;;;;;;46.78;24.25;;;;;;;;;;5130366;27;20054;-84
2023/12/05 13:34:43;;;;;;;48.45;28.83;;;;;;;;;;5116801;28;20057;-85
2023/12/05 13:37:09;;;;;;;69.82;41.28;;;;;;;;;;5110120;28;20178;-87
2023/12/05 13:39:35;;;;;;;51.65;34.22;;;;;;;;;;5110889;28;20476;-84
2023/12/05 13:42:01;;;;;;;45.42;25.85;;;;;;;;;;5114331;27;20035;-83
2023/12/05 13:44:28;;;;;;;44.08;25.33;;;;;;;;;;5062279;28;20131;-84
2023/12/05 13:46:54;;;;;;;41.47;24.95;;;;;;;;;;5051860;28;20127;-84
2023/12/05 13:49:21;;;;;;;40.72;24.23;;;;;;;;;;5069516;28;20439;-84
2023/12/05 13:51:47;;;;;;;53.35;30.30;;;;;;;;;;5068627;28;20044;-84
2023/12/05 13:54:13;;;;;;;39.65;23.33;;;;;;;;;;5055880;28;20045;-85
2023/12/05 13:56:39;;;;;;;42.40;22.90;;;;;;;;;;5060526;28;20105;-85
2023/12/05 13:59:05;;;;;;;43.45;25.75;;;;;;;;;;5069717;28;20512;-84
2023/12/05 14:01:31;;;;;;;47.22;25.30;;;;;;;;;;5068785;28;20059;-85
2023/12/05 14:03:57;;;;;;;40.13;23.23;;;;;;;;;;5067999;28;20425;-85
2023/12/05 14:06:23;;;;;;;44.38;23.80;;;;;;;;;;5069473;28;20059;-86
2023/12/05 14:08:49;;;;;;;47.95;27.58;;;;;;;;;;5052714;28;20040;-84
2023/12/05 14:11:15;;;;;;;45.78;24.95;;;;;;;;;;5073024;28;20052;-85
2023/12/05 14:13:41;;;;;;;41.15;23.63;;;;;;;;;;5072783;28;20165;-84
2023/12/05 14:16:08;;;;;;;45.60;24.42;;;;;;;;;;5052372;28;20040;-84